Time;durP1;ratioP1;P1;durP2;ratioP2;P2;SDS_P1;SDS_P2;PMS_P1;PMS_P2;Temp;Humidity;BMP_temperature;BMP_pressure;BME280_temperature;BME280_humidity;BME280_pressure;Samples;Min_cycle;Max_cycle;Signal;HPM_P1;HPM_P2
2022/04/22 00:01:01;;;;;;;7.72;4.13;;;10.30;97.80;;;;;;5044577;28;20080;-61
2022/04/22 00:03:27;;;;;;;12.95;3.17;;;10.30;97.90;;;;;;5045033;28;20041;-60
2022/04/22 00:05:54;;;;;;;7.05;2.70;;;10.20;98.00;;;;;;5045414;28;20041;-61
2022/04/22 00:08:22;;;;;;;8.23;2.83;;;10.20;98.10;;;;;;5044510;28;20042;-60
2022/04/22 00:13:34;;;;;;;7.15;2.72;;;10.20;98.20;;;;;;5044881;28;20437;-61
2022/04/22 00:16:02;;;;;;;7.97;2.80;;;10.30;98.20;;;;;;5042052;28;20037;-61
2022/04/22 00:18:31;;;;;;;9.80;3.97;;;10.20;98.30;;;;;;5042990;28;20053;-61
2022/04/22 00:20:58;;;;;;;7.00;2.65;;;10.20;98.50;;;;;;5039600;28;20096;-60
2022/04/22 00:23:26;;;;;;;9.13;3.85;;;10.20;98.40;;;;;;5034571;28;20117;-60
2022/04/22 00:25:53;;;;;;;8.18;3.63;;;10.20;98.60;;;;;;5043853;28;20107;-60
2022/04/22 00:28:20;;;;;;;6.35;3.00;;;10.20;98.60;;;;;;5044549;28;20057;-61
2022/04/22 00:30:47;;;;;;;8.57;3.38;;;10.20;98.60;;;;;;5045157;28;20046;-60
2022/04/22 00:33:15;;;;;;;10.70;3.45;;;10.10;98.80;;;;;;5045008;28;20050;-61
2022/04/22 00:35:41;;;;;;;9.30;2.88;;;10.10;98.70;;;;;;5044374;28;20057;-61
2022/04/22 00:38:08;;;;;;;15.60;3.60;;;10.10;98.80;;;;;;5044384;28;20046;-61
2022/04/22 00:40:36;;;;;;;4.47;3.30;;;10.10;99.00;;;;;;5044902;28;20054;-62
2022/04/22 00:43:21;;;;;;;11.70;4.75;;;10.10;99.40;;;;;;5044576;28;20049;-61
2022/04/22 00:45:47;;;;;;;11.18;4.22;;;10.10;99.90;;;;;;5043918;28;20496;-61
2022/04/22 00:48:17;;;;;;;7.78;3.05;;;10.00;99.30;;;;;;5045041;28;20052;-61
2022/04/22 00:50:44;;;;;;;9.77;3.30;;;10.00;99.60;;;;;;5044010;28;20054;-62
2022/04/22 00:53:11;;;;;;;8.45;2.97;;;10.00;99.50;;;;;;5039955;28;20068;-61
2022/04/22 00:55:39;;;;;;;12.93;3.67;;;10.00;99.70;;;;;;5043958;28;20049;-61
2022/04/22 00:58:07;;;;;;;14.35;3.58;;;10.00;99.90;;;;;;5044484;28;20045;-59
2022/04/22 01:00:34;;;;;;;8.98;4.03;;;10.00;99.90;;;;;;5044050;28;20041;-60
2022/04/22 01:03:01;;;;;;;10.50;4.15;;;10.00;99.90;;;;;;5045453;28;20053;-60
2022/04/22 01:10:59;;;;;;;6.67;3.57;;;10.00;99.90;;;;;;4697838;28;10000276;-60
2022/04/22 01:13:26;;;;;;;11.88;3.47;;;10.00;99.90;;;;;;5048074;28;20077;-62
2022/04/22 01:15:52;;;;;;;13.75;4.43;;;10.00;99.90;;;;;;5047632;28;20056;-61
2022/04/22 01:18:19;;;;;;;13.23;4.80;;;10.00;99.90;;;;;;5047509;28;20061;-60
2022/04/22 01:20:46;;;;;;;9.93;4.30;;;10.00;99.90;;;;;;5031998;28;20076;-61
2022/04/22 01:23:13;;;;;;;13.25;4.25;;;10.00;99.90;;;;;;5046559;28;20053;-60
2022/04/22 01:25:40;;;;;;;8.95;3.92;;;10.10;99.90;;;;;;5081651;28;20111;-60
2022/04/22 01:28:10;;;;;;;13.82;4.60;;;10.10;99.90;;;;;;5049005;28;20053;-61
2022/04/22 01:30:36;;;;;;;11.10;4.30;;;10.10;99.90;;;;;;5048065;28;20496;-62
2022/04/22 01:33:03;;;;;;;10.13;3.90;;;10.20;99.90;;;;;;5048091;28;20046;-61
2022/04/22 01:35:30;;;;;;;10.07;3.78;;;10.20;99.90;;;;;;5048649;28;20052;-61
2022/04/22 01:37:57;;;;;;;7.63;4.50;;;10.20;99.90;;;;;;5047757;28;20061;-61
2022/04/22 01:40:23;;;;;;;12.02;4.30;;;10.20;99.90;;;;;;5048534;28;20096;-62
2022/04/22 01:42:50;;;;;;;13.70;4.75;;;10.20;99.90;;;;;;5046882;28;20044;-61
2022/04/22 01:45:17;;;;;;;11.57;4.15;;;10.20;99.90;;;;;;5048318;28;20045;-61
2022/04/22 01:47:44;;;;;;;13.05;4.53;;;10.30;99.90;;;;;;5047952;28;20057;-60
2022/04/22 01:50:11;;;;;;;10.55;4.97;;;10.40;99.90;;;;;;5046393;28;20054;-60
2022/04/22 01:52:40;;;;;;;17.20;4.18;;;10.30;99.90;;;;;;5045894;28;20112;-60
2022/04/22 01:55:07;;;;;;;8.95;4.00;;;10.40;99.90;;;;;;5046270;28;20445;-61
2022/04/22 01:57:34;;;;;;;10.70;5.70;;;10.40;99.90;;;;;;5048293;28;20974;-60
2022/04/22 02:00:02;;;;;;;11.20;5.07;;;10.40;99.90;;;;;;5047503;28;20076;-60
2022/04/22 02:02:29;;;;;;;18.67;4.88;;;10.40;99.90;;;;;;5048724;28;20049;-60
2022/04/22 02:04:56;;;;;;;15.98;5.28;;;10.40;99.90;;;;;;5048310;28;20038;-60
2022/04/22 02:07:23;;;;;;;10.70;4.97;;;10.40;99.90;;;;;;5047257;28;20497;-60
2022/04/22 02:09:49;;;;;;;9.27;5.40;;;10.30;99.90;;;;;;5047903;28;20046;-60
2022/04/22 02:12:16;;;;;;;10.65;4.75;;;10.30;99.90;;;;;;5047200;28;20041;-61
2022/04/22 02:14:43;;;;;;;13.50;5.18;;;10.30;99.90;;;;;;5048415;28;20080;-62
2022/04/22 02:17:10;;;;;;;14.88;5.70;;;10.30;99.90;;;;;;5046851;28;20050;-61
2022/04/22 02:19:37;;;;;;;11.50;5.40;;;10.30;99.90;;;;;;5046568;28;20057;-61
2022/04/22 02:22:04;;;;;;;17.48;5.82;;;10.20;99.90;;;;;;5046607;28;20049;-62
2022/04/22 02:24:30;;;;;;;9.27;5.18;;;10.20;99.90;;;;;;5043330;28;20072;-62
2022/04/22 02:29:43;;;;;;;17.67;6.97;;;10.20;99.90;;;;;;5046495;28;20504;-61
2022/04/22 02:32:11;;;;;;;11.07;5.72;;;10.10;99.90;;;;;;5046779;28;20053;-61
2022/04/22 02:34:38;;;;;;;14.68;5.43;;;10.10;99.90;;;;;;5045493;28;20079;-61
2022/04/22 02:37:06;;;;;;;16.48;6.05;;;10.10;99.90;;;;;;5030063;28;20056;-61
2022/04/22 02:39:33;;;;;;;14.73;5.95;;;10.00;99.90;;;;;;5045412;28;20076;-61
2022/04/22 02:47:50;;;;;;;15.05;6.95;;;10.00;99.90;;;;;;5064110;28;20142;-61
2022/04/22 02:50:17;;;;;;;11.13;6.47;;;10.00;99.90;;;;;;5062998;28;20060;-61
2022/04/22 02:52:44;;;;;;;12.57;6.63;;;10.00;99.90;;;;;;5024795;28;20042;-61
2022/04/22 02:55:10;;;;;;;16.25;7.85;;;10.10;99.90;;;;;;5044447;28;20042;-61
2022/04/22 02:57:38;;;;;;;13.98;7.25;;;10.10;99.90;;;;;;5046464;28;20464;-61
2022/04/22 03:00:05;;;;;;;14.15;6.88;;;10.10;99.90;;;;;;5044894;28;20088;-62
2022/04/22 03:02:33;;;;;;;21.83;8.13;;;10.10;99.90;;;;;;5044808;28;20532;-61
2022/04/22 03:05:00;;;;;;;15.73;7.30;;;10.10;99.90;;;;;;5045900;28;20052;-61
2022/04/22 03:07:27;;;;;;;16.88;7.22;;;10.10;99.90;;;;;;5044387;28;20412;-62
2022/04/22 03:09:54;;;;;;;21.20;8.23;;;10.10;99.90;;;;;;5045660;28;20042;-61
2022/04/22 03:12:22;;;;;;;16.23;8.88;;;10.10;99.90;;;;;;5045839;28;20045;-61
2022/04/22 03:14:49;;;;;;;16.90;7.15;;;10.10;99.90;;;;;;5046024;28;20050;-61
2022/04/22 03:17:16;;;;;;;14.80;7.10;;;10.10;99.90;;;;;;5046544;28;20045;-60
2022/04/22 03:19:43;;;;;;;15.73;6.82;;;10.20;99.90;;;;;;5045171;28;20109;-60
2022/04/22 03:22:09;;;;;;;14.02;6.40;;;10.20;99.90;;;;;;5043454;28;20069;-60
2022/04/22 03:24:37;;;;;;;15.98;7.05;;;10.10;99.90;;;;;;5026893;28;20052;-61
2022/04/22 03:27:04;;;;;;;17.83;7.82;;;10.10;99.90;;;;;;5045605;28;20045;-60
2022/04/22 03:29:31;;;;;;;12.68;6.10;;;10.10;99.90;;;;;;5028716;28;20053;-60
2022/04/22 03:31:59;;;;;;;19.27;7.35;;;10.10;99.90;;;;;;5045569;28;20323;-60
2022/04/22 03:34:26;;;;;;;23.33;6.57;;;10.10;99.90;;;;;;5044565;28;20059;-59
2022/04/22 03:36:53;;;;;;;16.98;7.40;;;10.10;99.90;;;;;;5045807;28;20053;-60
2022/04/22 03:39:20;;;;;;;12.75;6.75;;;10.10;99.90;;;;;;5045768;28;20080;-60
2022/04/22 03:41:47;;;;;;;16.33;6.55;;;10.00;99.90;;;;;;5034566;28;20050;-60
2022/04/22 03:44:13;;;;;;;18.25;6.35;;;10.10;99.90;;;;;;5043395;28;20053;-60
2022/04/22 03:46:40;;;;;;;12.98;6.85;;;10.10;99.90;;;;;;5045743;28;20041;-60
2022/04/22 03:49:09;;;;;;;17.10;6.43;;;10.10;99.90;;;;;;5045448;28;20504;-61
2022/04/22 03:51:36;;;;;;;17.15;7.15;;;10.10;99.90;;;;;;5044526;28;20099;-60
2022/04/22 03:54:03;;;;;;;18.42;7.55;;;10.10;99.90;;;;;;5045197;28;20056;-60
2022/04/22 03:59:15;;;;;;;14.07;7.18;;;10.10;99.90;;;;;;5044391;28;20497;-61
2022/04/22 04:01:43;;;;;;;13.80;7.03;;;10.10;99.90;;;;;;5044628;28;20654;-60
2022/04/22 04:04:11;;;;;;;12.55;6.35;;;10.10;99.90;;;;;;5043873;28;20049;-60
2022/04/22 04:06:37;;;;;;;18.50;8.18;;;10.10;99.90;;;;;;5045602;28;20081;-60
2022/04/22 04:17:20;;;;;;;18.90;7.22;;;10.10;99.90;;;;;;5046958;28;20056;-60
2022/04/22 04:25:18;;;;;;;19.33;7.22;;;10.20;99.90;;;;;;5047399;28;20060;-60
2022/04/22 04:27:45;;;;;;;15.85;7.13;;;10.20;99.90;;;;;;5044735;28;20084;-60
2022/04/22 04:30:12;;;;;;;29.58;8.40;;;10.20;99.90;;;;;;5047231;28;20041;-60
2022/04/22 04:32:39;;;;;;;18.15;8.70;;;10.20;99.90;;;;;;5046517;28;20132;-59
2022/04/22 04:35:06;;;;;;;18.83;7.80;;;10.20;99.90;;;;;;5030306;28;20049;-60
2022/04/22 04:37:39;;;;;;;15.10;7.10;;;10.20;99.90;;;;;;5047693;28;20064;-59
2022/04/22 04:40:07;;;;;;;19.67;9.27;;;10.20;99.90;;;;;;5035565;28;20041;-60
2022/04/22 04:42:34;;;;;;;18.55;6.78;;;10.30;99.90;;;;;;5046050;28;20068;-60
2022/04/22 04:45:01;;;;;;;20.85;6.72;;;10.30;99.90;;;;;;5052232;28;20041;-60
2022/04/22 04:47:28;;;;;;;24.35;7.75;;;10.40;99.90;;;;;;5052777;28;20053;-60
2022/04/22 04:49:55;;;;;;;12.45;6.78;;;10.40;99.90;;;;;;5049569;28;20462;-60
2022/04/22 04:52:22;;;;;;;15.85;7.90;;;10.30;99.90;;;;;;5046306;28;20052;-60
2022/04/22 04:54:51;;;;;;;15.45;7.18;;;10.40;99.90;;;;;;5052888;28;20101;-61
2022/04/22 04:57:19;;;;;;;17.08;7.80;;;10.30;99.90;;;;;;5054513;28;20049;-60
2022/04/22 04:59:46;;;;;;;15.70;7.65;;;10.30;99.90;;;;;;5054399;28;20501;-60
2022/04/22 05:02:12;;;;;;;21.02;8.60;;;10.30;99.90;;;;;;5053246;28;20045;-60
2022/04/22 05:04:39;;;;;;;26.98;7.97;;;10.40;99.90;;;;;;5054437;28;20080;-60
2022/04/22 05:07:06;;;;;;;17.42;7.07;;;10.40;99.90;;;;;;5052823;28;20042;-61
2022/04/22 05:09:33;;;;;;;18.35;7.30;;;10.40;99.90;;;;;;5053321;28;20200;-61
2022/04/22 05:11:59;;;;;;;16.88;7.03;;;10.40;99.90;;;;;;5053622;28;20049;-60
2022/04/22 05:14:26;;;;;;;23.15;7.72;;;10.50;99.90;;;;;;5053034;28;20052;-60
2022/04/22 05:16:54;;;;;;;20.20;8.55;;;10.50;99.90;;;;;;5054861;28;20076;-60
2022/04/22 05:19:22;;;;;;;19.73;7.57;;;10.50;99.90;;;;;;5053144;28;20046;-60
2022/04/22 05:21:49;;;;;;;21.38;8.43;;;10.50;99.90;;;;;;5049800;28;20054;-61
2022/04/22 05:24:16;;;;;;;17.38;8.40;;;10.50;99.90;;;;;;5038671;28;20056;-60
2022/04/22 05:26:43;;;;;;;15.90;7.82;;;10.50;99.90;;;;;;5051294;28;20052;-61
2022/04/22 05:32:36;;;;;;;23.52;9.27;;;10.50;99.90;;;;;;5051989;28;20638;-60
2022/04/22 05:34:42;;;;;;;21.98;10.05;;;10.50;99.90;;;;;;5052607;28;20041;-60
2022/04/22 05:37:09;;;;;;;16.35;7.93;;;10.60;99.90;;;;;;5047378;28;20053;-62
2022/04/22 05:39:36;;;;;;;20.45;9.50;;;10.60;99.90;;;;;;5043286;28;20045;-61
2022/04/22 05:42:03;;;;;;;15.15;7.72;;;10.70;99.90;;;;;;5045925;28;20049;-60
2022/04/22 05:44:30;;;;;;;20.05;9.45;;;10.70;99.90;;;;;;5045036;28;20056;-60
2022/04/22 05:46:57;;;;;;;24.08;9.23;;;10.70;99.90;;;;;;5049064;28;20048;-60
2022/04/22 05:49:24;;;;;;;23.80;8.95;;;10.70;99.90;;;;;;5039311;28;20053;-62
2022/04/22 05:51:52;;;;;;;15.70;8.70;;;10.70;99.90;;;;;;5049952;28;20421;-60
2022/04/22 05:54:19;;;;;;;23.45;8.68;;;10.80;99.90;;;;;;5052727;28;20073;-61
2022/04/22 05:56:46;;;;;;;25.20;8.85;;;10.80;99.90;;;;;;5048805;28;20054;-60
2022/04/22 05:59:13;;;;;;;31.27;10.00;;;10.80;99.90;;;;;;5049147;28;20049;-60
2022/04/22 06:01:41;;;;;;;20.23;9.20;;;10.80;99.90;;;;;;5047277;28;20045;-61
2022/04/22 06:04:09;;;;;;;16.90;10.45;;;10.90;99.90;;;;;;5030802;28;20057;-61
2022/04/22 06:06:36;;;;;;;19.92;10.10;;;10.90;99.90;;;;;;5027096;28;20057;-61
2022/04/22 06:11:57;;;;;;;17.73;8.65;;;10.90;99.90;;;;;;5047922;28;20042;-61
2022/04/22 06:14:24;;;;;;;22.35;9.77;;;10.90;99.90;;;;;;5047345;28;20071;-61
2022/04/22 06:16:51;;;;;;;23.20;9.25;;;11.00;99.90;;;;;;5047883;28;20048;-61
2022/04/22 06:19:18;;;;;;;21.98;10.00;;;11.00;99.90;;;;;;5047262;28;20065;-61
2022/04/22 06:21:45;;;;;;;28.17;10.07;;;11.10;99.90;;;;;;5047033;28;20224;-60
2022/04/22 06:24:12;;;;;;;17.17;9.50;;;11.20;99.90;;;;;;5047688;28;20049;-60
2022/04/22 06:26:39;;;;;;;19.77;10.18;;;11.30;99.90;;;;;;5045998;28;20049;-61
2022/04/22 06:29:06;;;;;;;20.20;9.68;;;11.30;99.90;;;;;;5048119;28;20050;-62
2022/04/22 06:31:35;;;;;;;29.77;10.07;;;11.40;99.90;;;;;;5044013;28;20045;-61
2022/04/22 06:34:03;;;;;;;20.00;9.13;;;11.40;99.90;;;;;;5047909;28;20046;-62
2022/04/22 06:36:30;;;;;;;24.60;10.40;;;11.50;99.90;;;;;;5028370;28;20072;-61
2022/04/22 06:39:00;;;;;;;19.08;10.32;;;11.40;99.90;;;;;;5042837;28;20058;-61
2022/04/22 06:46:58;;;;;;;23.33;10.00;;;11.50;99.90;;;;;;5045799;28;20136;-60
2022/04/22 06:49:25;;;;;;;18.48;9.75;;;11.50;99.90;;;;;;5043392;28;20061;-62
2022/04/22 06:51:52;;;;;;;27.42;11.52;;;11.50;99.90;;;;;;5044152;28;20041;-60
2022/04/22 06:54:19;;;;;;;21.15;9.43;;;11.50;99.90;;;;;;5046426;28;20041;-60
2022/04/22 06:56:48;;;;;;;23.73;10.02;;;11.50;99.90;;;;;;5045541;28;20086;-60
2022/04/22 06:59:19;;;;;;;19.38;9.38;;;11.40;99.90;;;;;;5046630;28;20080;-61
2022/04/22 07:01:46;;;;;;;20.83;9.75;;;11.40;99.90;;;;;;5038708;28;20119;-60
2022/04/22 07:04:13;;;;;;;18.65;11.65;;;11.40;99.90;;;;;;5042983;28;20041;-61
2022/04/22 07:06:43;;;;;;;26.65;10.75;;;11.40;99.90;;;;;;5045094;28;20058;-61
2022/04/22 07:09:10;;;;;;;28.98;10.45;;;11.40;99.90;;;;;;5042700;28;20045;-61
2022/04/22 07:11:38;;;;;;;22.23;9.50;;;11.50;99.90;;;;;;5043002;28;20081;-61
2022/04/22 07:14:05;;;;;;;18.35;10.63;;;11.60;99.90;;;;;;5048971;28;20041;-61
2022/04/22 07:16:32;;;;;;;24.65;10.38;;;11.60;99.90;;;;;;5006916;28;20072;-61
2022/04/22 07:18:59;;;;;;;26.17;10.77;;;11.60;99.90;;;;;;5035809;28;20103;-60
2022/04/22 07:21:27;;;;;;;21.83;10.30;;;11.60;99.90;;;;;;5034983;28;20076;-62
2022/04/22 07:23:55;;;;;;;16.77;10.00;;;11.70;99.90;;;;;;5043052;28;20049;-62
2022/04/22 07:26:24;;;;;;;19.75;9.10;;;11.80;99.90;;;;;;5036404;28;20068;-61
2022/04/22 07:28:51;;;;;;;21.23;9.05;;;11.90;99.90;;;;;;5042246;28;20050;-61
2022/04/22 07:31:18;;;;;;;20.52;9.13;;;11.90;99.90;;;;;;5043854;28;20141;-62
2022/04/22 07:33:46;;;;;;;21.02;9.90;;;12.00;99.90;;;;;;5045995;28;20056;-61
2022/04/22 07:36:13;;;;;;;26.60;10.23;;;12.00;99.90;;;;;;5043942;28;20060;-61
2022/04/22 07:38:40;;;;;;;20.13;9.90;;;12.00;99.90;;;;;;5027793;28;20217;-61
2022/04/22 07:41:08;;;;;;;25.88;10.45;;;12.00;99.90;;;;;;5044915;28;20045;-61
2022/04/22 07:49:07;;;;;;;18.17;9.13;;;12.20;99.90;;;;;;5042217;28;20361;-61
2022/04/22 07:51:34;;;;;;;23.60;11.43;;;12.20;99.90;;;;;;5046068;28;20041;-61
2022/04/22 07:54:00;;;;;;;22.15;9.13;;;12.20;99.90;;;;;;5038125;28;20183;-61
2022/04/22 07:56:27;;;;;;;17.20;10.45;;;12.20;99.90;;;;;;5044524;28;20056;-61
2022/04/22 07:58:56;;;;;;;23.15;9.65;;;12.20;99.90;;;;;;5046426;28;20049;-61
2022/04/22 08:01:24;;;;;;;21.60;8.60;;;12.30;99.90;;;;;;5044800;28;20071;-61
2022/04/22 08:03:53;;;;;;;18.52;9.10;;;12.30;99.90;;;;;;5043633;28;20063;-61
2022/04/22 08:06:20;;;;;;;17.60;9.18;;;12.40;99.90;;;;;;5040286;28;20055;-62
2022/04/22 08:08:47;;;;;;;17.95;8.48;;;12.50;99.90;;;;;;5042987;28;20052;-62
2022/04/22 08:11:14;;;;;;;18.45;9.00;;;12.50;99.90;;;;;;5044359;28;20046;-61
2022/04/22 08:13:41;;;;;;;19.45;9.20;;;12.50;99.90;;;;;;5045030;28;20049;-61
2022/04/22 08:16:08;;;;;;;19.63;8.88;;;12.50;99.90;;;;;;5044432;28;20077;-61
2022/04/22 08:18:36;;;;;;;23.42;9.30;;;12.50;99.90;;;;;;5025773;28;20046;-62
2022/04/22 08:21:02;;;;;;;15.23;8.07;;;12.60;99.90;;;;;;5040025;28;20053;-61
2022/04/22 08:23:29;;;;;;;15.95;7.63;;;12.60;99.90;;;;;;5045085;28;20049;-62
2022/04/22 08:25:56;;;;;;;15.45;8.43;;;12.70;99.90;;;;;;5043897;28;20041;-61
2022/04/22 08:28:23;;;;;;;14.75;8.65;;;12.80;99.90;;;;;;5027151;28;20037;-61
2022/04/22 08:30:49;;;;;;;14.52;7.60;;;12.80;99.90;;;;;;5052475;28;20056;-61
2022/04/22 08:33:16;;;;;;;15.45;8.75;;;12.80;99.90;;;;;;5044566;28;20046;-61
2022/04/22 08:35:43;;;;;;;15.57;8.10;;;12.80;99.90;;;;;;5028272;28;20090;-61
2022/04/22 08:38:10;;;;;;;17.70;7.95;;;12.80;99.90;;;;;;5030029;28;20112;-60
2022/04/22 08:40:37;;;;;;;14.77;7.43;;;12.80;99.90;;;;;;5057290;28;20041;-60
2022/04/22 08:43:06;;;;;;;17.65;7.80;;;12.80;99.90;;;;;;5047377;28;20109;-61
2022/04/22 08:45:33;;;;;;;13.73;7.80;;;12.90;99.90;;;;;;5046217;28;20060;-61
2022/04/22 08:51:40;;;;;;;13.77;8.75;;;12.90;99.90;;;;;;4753770;28;20069;-60
2022/04/22 08:54:08;;;;;;;16.33;7.95;;;13.10;99.90;;;;;;4952116;28;20109;-60
2022/04/22 08:56:35;;;;;;;24.42;8.70;;;13.20;99.90;;;;;;4969247;28;20039;-61
2022/04/22 08:59:02;;;;;;;27.23;9.45;;;13.30;99.90;;;;;;4971902;28;20050;-60
2022/04/22 09:01:29;;;;;;;18.25;10.02;;;13.30;99.90;;;;;;4970836;28;20081;-60
2022/04/22 09:04:04;;;;;;;17.70;7.90;;;13.30;99.90;;;;;;4964594;28;20050;-60
2022/04/22 09:06:41;;;;;;;11.65;7.15;;;13.30;99.90;;;;;;4970776;28;20071;-59
2022/04/22 09:09:08;;;;;;;11.00;7.05;;;13.30;99.90;;;;;;4965315;28;20082;-61
2022/04/22 09:11:42;;;;;;;19.65;7.35;;;13.30;99.90;;;;;;4968745;28;20043;-61
2022/04/22 09:14:09;;;;;;;14.57;6.45;;;13.30;99.90;;;;;;4968670;28;20138;-60
2022/04/22 09:16:40;;;;;;;18.05;6.78;;;13.30;99.90;;;;;;4981429;28;20050;-60
2022/04/22 09:19:08;;;;;;;15.43;6.95;;;13.30;99.90;;;;;;4980502;28;20071;-60
2022/04/22 09:21:35;;;;;;;14.07;7.22;;;13.20;99.90;;;;;;4973524;28;20090;-60
2022/04/22 09:24:20;;;;;;;18.13;7.18;;;13.20;99.90;;;;;;4974638;28;20513;-60
2022/04/22 09:26:47;;;;;;;19.10;7.43;;;13.20;99.90;;;;;;4969612;28;20086;-60
2022/04/22 09:29:13;;;;;;;19.08;7.63;;;13.20;99.90;;;;;;4969147;28;20078;-60
2022/04/22 09:31:47;;;;;;;21.33;7.00;;;13.10;99.90;;;;;;4974948;28;20438;-62
2022/04/22 09:34:13;;;;;;;15.50;7.25;;;13.10;99.90;;;;;;4983053;28;20047;-60
2022/04/22 09:45:00;;;;;;;16.40;7.00;;;13.20;99.90;;;;;;4960762;28;20454;-59
2022/04/22 09:47:30;;;;;;;15.57;7.00;;;13.20;99.90;;;;;;4971179;28;20077;-60
2022/04/22 09:49:57;;;;;;;12.30;7.18;;;13.20;99.90;;;;;;4971200;28;20157;-60
2022/04/22 09:52:28;;;;;;;13.40;7.90;;;13.30;99.90;;;;;;4972030;28;20061;-60
2022/04/22 09:55:01;;;;;;;16.42;8.77;;;13.40;99.90;;;;;;4970530;28;20662;-60
2022/04/22 09:57:53;;;;;;;16.00;7.18;;;13.60;99.90;;;;;;4971930;28;20101;-60
2022/04/22 10:00:33;;;;;;;11.73;6.70;;;14.10;99.90;;;;;;4968874;28;20494;-59
2022/04/22 10:03:00;;;;;;;9.55;6.15;;;14.40;99.80;;;;;;4970986;28;20135;-60
2022/04/22 10:05:28;;;;;;;18.17;7.18;;;14.50;99.90;;;;;;4971462;28;20133;-60
2022/04/22 10:07:56;;;;;;;10.18;6.05;;;14.60;99.10;;;;;;4970894;28;20051;-59
2022/04/22 10:10:30;;;;;;;13.50;6.47;;;14.90;98.90;;;;;;4971227;28;20055;-59
2022/04/22 10:12:59;;;;;;;12.75;6.47;;;15.20;98.60;;;;;;4971850;28;20074;-60
2022/04/22 10:15:27;;;;;;;16.80;6.63;;;15.60;98.50;;;;;;4970298;28;20121;-60
2022/04/22 10:17:54;;;;;;;15.57;7.22;;;16.00;98.10;;;;;;4971503;28;20112;-60
2022/04/22 10:20:21;;;;;;;19.88;7.03;;;16.30;98.00;;;;;;4969930;28;20082;-59
2022/04/22 10:22:49;;;;;;;14.15;6.47;;;16.40;97.20;;;;;;4971686;28;20086;-60
2022/04/22 10:25:16;;;;;;;12.68;6.93;;;16.30;96.70;;;;;;4971555;28;20081;-60
2022/04/22 10:27:43;;;;;;;21.73;7.07;;;16.20;97.60;;;;;;4970125;28;20109;-60
2022/04/22 10:30:10;;;;;;;14.60;7.40;;;16.10;97.00;;;;;;4965998;28;20131;-59
2022/04/22 10:32:39;;;;;;;18.58;7.57;;;15.90;97.00;;;;;;4981184;28;20061;-60
2022/04/22 10:35:07;;;;;;;11.43;7.10;;;15.80;97.40;;;;;;4970846;28;20415;-59
2022/04/22 10:37:34;;;;;;;14.30;7.78;;;15.70;97.20;;;;;;4970882;28;20043;-61
2022/04/22 10:40:02;;;;;;;12.52;6.82;;;15.60;97.20;;;;;;4969653;28;20062;-59
2022/04/22 10:42:33;;;;;;;15.15;7.03;;;15.40;96.90;;;;;;4970532;28;20058;-61
2022/04/22 10:47:51;;;;;;;15.13;6.85;;;15.20;96.80;;;;;;4970624;28;20061;-60
2022/04/22 10:50:27;;;;;;;16.10;5.35;;;15.10;97.10;;;;;;4969990;28;20147;-60
2022/04/22 10:53:03;;;;;;;12.93;5.75;;;14.70;96.90;;;;;;4970574;28;20836;-60
2022/04/22 10:55:37;;;;;;;10.13;6.70;;;14.60;97.30;;;;;;4970484;28;20048;-59
2022/04/22 10:58:24;;;;;;;12.10;5.88;;;14.60;98.00;;;;;;4971034;28;20295;-60
2022/04/22 11:00:53;;;;;;;10.95;6.00;;;14.60;97.80;;;;;;4970526;28;20078;-59
2022/04/22 11:03:54;;;;;;;9.73;6.05;;;14.50;97.80;;;;;;4969998;28;20093;-60
2022/04/22 11:06:21;;;;;;;14.00;6.80;;;14.50;98.10;;;;;;4963399;28;20544;-60
2022/04/22 11:08:58;;;;;;;11.18;5.70;;;14.40;97.90;;;;;;4970543;28;20142;-61
2022/04/22 11:11:26;;;;;;;19.08;6.63;;;14.30;97.50;;;;;;4970426;28;20074;-59
2022/04/22 11:13:53;;;;;;;9.38;5.28;;;14.30;97.90;;;;;;4970796;28;20089;-60
2022/04/22 11:16:22;;;;;;;11.18;5.72;;;14.30;97.70;;;;;;4970367;28;20577;-61
2022/04/22 11:19:11;;;;;;;15.95;6.35;;;14.30;97.80;;;;;;4970556;28;20046;-60
2022/04/22 11:21:39;;;;;;;15.50;5.07;;;14.30;96.70;;;;;;4968841;28;20081;-61
2022/04/22 11:24:09;;;;;;;10.23;5.97;;;14.20;97.40;;;;;;4970416;28;20074;-61
2022/04/22 11:26:37;;;;;;;11.48;5.47;;;14.30;97.30;;;;;;4970146;28;20074;-61
2022/04/22 11:29:07;;;;;;;10.48;4.40;;;14.30;97.30;;;;;;4970145;28;20180;-61
2022/04/22 11:31:34;;;;;;;8.43;5.20;;;14.30;96.50;;;;;;4969318;28;20133;-60
2022/04/22 11:34:11;;;;;;;11.43;5.70;;;14.30;97.10;;;;;;4961389;28;20051;-61
2022/04/22 11:36:45;;;;;;;16.38;6.20;;;14.40;96.70;;;;;;4968628;28;20051;-63
2022/04/22 11:39:15;;;;;;;8.55;4.78;;;14.40;96.30;;;;;;4968853;28;20090;-60
2022/04/22 11:41:57;;;;;;;13.10;5.97;;;14.40;96.10;;;;;;4969629;28;20454;-61
2022/04/22 11:44:25;;;;;;;13.30;6.25;;;14.40;96.30;;;;;;4968658;28;20109;-60
2022/04/22 11:46:52;;;;;;;9.23;4.90;;;14.60;96.80;;;;;;4969794;28;20043;-61
2022/04/22 11:49:19;;;;;;;15.63;6.07;;;14.70;96.80;;;;;;4959127;28;20102;-61
2022/04/22 11:51:53;;;;;;;10.60;4.95;;;14.90;96.60;;;;;;4968354;28;20062;-63
2022/04/22 11:54:25;;;;;;;12.82;6.50;;;14.90;96.70;;;;;;4968043;28;20050;-59
2022/04/22 11:56:53;;;;;;;13.82;6.20;;;14.90;96.20;;;;;;4969790;28;20055;-60
2022/04/22 11:59:21;;;;;;;13.65;6.05;;;14.90;96.60;;;;;;4969900;28;20097;-60
2022/04/22 12:10:06;;;;;;;14.88;6.20;;;15.10;96.80;;;;;;4958514;28;20047;-59
2022/04/22 12:12:33;;;;;;;16.58;6.38;;;15.10;96.70;;;;;;4969386;28;20061;-60
2022/04/22 12:15:03;;;;;;;15.98;6.97;;;15.30;96.20;;;;;;4969793;28;20049;-59
2022/04/22 12:17:30;;;;;;;14.50;7.28;;;15.40;95.90;;;;;;4969336;28;20046;-60
2022/04/22 12:19:57;;;;;;;17.73;7.32;;;15.60;95.30;;;;;;4969523;28;20085;-60
2022/04/22 12:22:24;;;;;;;13.32;7.82;;;15.60;95.80;;;;;;4969607;28;20050;-60
2022/04/22 12:25:11;;;;;;;12.18;6.53;;;15.60;95.60;;;;;;4980972;28;20078;-60
2022/04/22 12:27:38;;;;;;;11.43;6.20;;;15.50;94.50;;;;;;4950580;28;20054;-60
2022/04/22 12:30:12;;;;;;;10.65;6.65;;;15.70;95.50;;;;;;4968189;28;20085;-60
2022/04/22 12:32:39;;;;;;;13.63;6.05;;;15.80;95.10;;;;;;4960609;28;20051;-60
2022/04/22 12:35:16;;;;;;;13.40;5.97;;;16.00;95.40;;;;;;4958637;28;20050;-60
2022/04/22 12:37:52;;;;;;;18.52;6.50;;;16.10;94.70;;;;;;4969251;28;20795;-60
2022/04/22 12:40:21;;;;;;;14.65;7.38;;;16.10;94.80;;;;;;4967791;28;20281;-61
2022/04/22 12:42:49;;;;;;;26.52;8.23;;;16.20;94.90;;;;;;4969307;28;20042;-59
2022/04/22 12:53:50;;;;;;;14.25;6.45;;;16.10;95.10;;;;;;4969228;28;20588;-59
2022/04/22 12:56:16;;;;;;;12.88;7.80;;;16.00;95.10;;;;;;4969549;28;20054;-61
2022/04/22 12:58:52;;;;;;;17.08;7.93;;;16.00;95.30;;;;;;4969531;28;20051;-59
2022/04/22 13:01:20;;;;;;;18.00;7.30;;;16.10;95.30;;;;;;4969777;28;20077;-59
2022/04/22 13:03:48;;;;;;;13.88;6.60;;;16.10;95.20;;;;;;4968849;28;20055;-59
2022/04/22 13:06:37;;;;;;;22.52;8.32;;;16.10;95.10;;;;;;4969054;28;20054;-59
2022/04/22 13:09:04;;;;;;;19.05;8.57;;;16.00;95.50;;;;;;4971757;28;20097;-60
2022/04/22 13:11:31;;;;;;;13.35;7.43;;;16.10;95.60;;;;;;4958870;28;20185;-60
2022/04/22 13:13:58;;;;;;;15.93;7.28;;;16.00;95.40;;;;;;4971841;28;20090;-60
2022/04/22 13:16:24;;;;;;;21.88;6.80;;;16.00;95.70;;;;;;4970183;28;20102;-60
2022/04/22 13:18:51;;;;;;;16.95;7.20;;;16.00;95.60;;;;;;4972303;28;20054;-60
2022/04/22 13:21:18;;;;;;;15.73;7.25;;;16.00;95.80;;;;;;4973493;28;20051;-60
2022/04/22 13:23:45;;;;;;;16.70;6.72;;;16.00;95.90;;;;;;4972467;28;20054;-59
2022/04/22 13:26:12;;;;;;;13.45;6.57;;;15.90;95.60;;;;;;4972841;28;20046;-60
2022/04/22 13:28:38;;;;;;;19.55;7.32;;;16.00;96.00;;;;;;4972770;28;20055;-59
2022/04/22 13:31:05;;;;;;;15.57;7.18;;;16.00;96.10;;;;;;4972553;28;20086;-59
2022/04/22 13:33:33;;;;;;;20.02;7.35;;;16.10;95.90;;;;;;4969533;28;20069;-59
2022/04/22 13:36:01;;;;;;;12.63;6.78;;;16.30;95.80;;;;;;4972445;28;20082;-59
2022/04/22 13:38:32;;;;;;;16.55;6.90;;;16.40;96.00;;;;;;4972965;28;20175;-60
2022/04/22 13:41:00;;;;;;;14.30;6.75;;;16.50;95.40;;;;;;4955580;28;20461;-62
2022/04/22 13:43:30;;;;;;;13.27;6.55;;;16.50;95.40;;;;;;4972742;28;20094;-60
2022/04/22 13:54:17;;;;;;;15.52;6.47;;;16.80;95.20;;;;;;4972223;28;20514;-59
2022/04/22 13:56:44;;;;;;;17.67;7.70;;;16.70;95.30;;;;;;4970766;28;20074;-59
2022/04/22 13:59:11;;;;;;;18.33;7.70;;;16.80;95.20;;;;;;4972199;28;20051;-60
2022/04/22 14:01:37;;;;;;;20.85;7.55;;;16.70;95.10;;;;;;4969755;28;20047;-59
2022/04/22 14:04:04;;;;;;;17.52;7.07;;;16.80;95.30;;;;;;4968875;28;20520;-60
2022/04/22 14:06:31;;;;;;;18.80;7.63;;;16.90;95.20;;;;;;4971373;28;20043;-59
2022/04/22 14:08:59;;;;;;;11.95;7.28;;;17.10;94.80;;;;;;4971803;28;20414;-59
2022/04/22 14:11:28;;;;;;;15.95;7.13;;;17.30;94.60;;;;;;4970419;28;20138;-59